Time;durP1;ratioP1;P1;durP2;ratioP2;P2;SDS_P1;SDS_P2;PMS_P1;PMS_P2;Temp;Humidity;BMP_temperature;BMP_pressure;BME280_temperature;BME280_humidity;BME280_pressure;Samples;Min_cycle;Max_cycle;Signal;HPM_P1;HPM_P2
2022/01/27 00:05:02;;;;;;;7.97;3.47;;;;;;;;;;4968807;28;20033;-68
2022/01/27 00:07:27;;;;;;;8.77;3.72;;;;;;;;;;4957236;28;20056;-68
2022/01/27 00:12:33;;;;;;;8.25;4.10;;;;;;;;;;4972868;28;20329;-68
2022/01/27 00:15:09;;;;;;;7.53;3.90;;;;;;;;;;4973152;28;20056;-68
2022/01/27 00:17:40;;;;;;;12.70;4.45;;;;;;;;;;4972659;28;20033;-68
2022/01/27 00:20:06;;;;;;;7.28;3.55;;;;;;;;;;4955199;28;20522;-68
2022/01/27 00:22:31;;;;;;;9.60;3.97;;;;;;;;;;4973566;28;20456;-68
2022/01/27 00:24:56;;;;;;;8.30;3.85;;;;;;;;;;4954303;28;20440;-67
2022/01/27 00:27:22;;;;;;;6.47;3.53;;;;;;;;;;4955576;28;20345;-68
2022/01/27 00:29:47;;;;;;;7.07;3.40;;;;;;;;;;4954492;28;20976;-68
2022/01/27 00:32:12;;;;;;;10.02;4.57;;;;;;;;;;4954350;28;20444;-68
2022/01/27 00:34:38;;;;;;;8.07;4.00;;;;;;;;;;4972358;28;20311;-68
2022/01/27 00:37:03;;;;;;;7.15;3.58;;;;;;;;;;4971859;28;20340;-68
2022/01/27 00:39:29;;;;;;;6.72;3.35;;;;;;;;;;4972171;28;20325;-67
2022/01/27 00:41:54;;;;;;;8.52;4.10;;;;;;;;;;4971838;28;20325;-67
2022/01/27 00:44:19;;;;;;;8.55;3.47;;;;;;;;;;4954519;28;20048;-68
2022/01/27 00:46:45;;;;;;;8.15;3.45;;;;;;;;;;4971985;28;20440;-68
2022/01/27 00:49:10;;;;;;;6.35;2.92;;;;;;;;;;4954617;28;20420;-68
2022/01/27 00:51:38;;;;;;;7.18;3.45;;;;;;;;;;4971551;28;20329;-67
2022/01/27 00:54:08;;;;;;;8.20;3.55;;;;;;;;;;4954361;28;20364;-67
2022/01/27 00:59:51;;;;;;;6.65;3.10;;;;;;;;;;4930069;28;20494;-68
2022/01/27 01:02:47;;;;;;;7.80;3.60;;;;;;;;;;4922051;28;20043;-67
2022/01/27 01:05:19;;;;;;;6.90;3.50;;;;;;;;;;4938886;28;20119;-68
2022/01/27 01:07:48;;;;;;;7.82;4.28;;;;;;;;;;4951023;28;20077;-68
2022/01/27 01:15:44;;;;;;;7.80;3.55;;;;;;;;;;4953637;28;20087;-67
2022/01/27 01:29:26;;;;;;;7.03;4.13;;;;;;;;;;4951980;28;20456;-68
2022/01/27 01:34:25;;;;;;;5.82;3.67;;;;;;;;;;4934134;28;20425;-67
2022/01/27 01:36:56;;;;;;;7.93;3.10;;;;;;;;;;4951341;28;20022;-67
2022/01/27 01:39:23;;;;;;;7.50;4.30;;;;;;;;;;4965726;28;20494;-68
2022/01/27 01:41:49;;;;;;;9.15;3.90;;;;;;;;;;4933555;28;20462;-68
2022/01/27 01:44:14;;;;;;;7.68;3.53;;;;;;;;;;4952143;28;20424;-68
2022/01/27 01:46:40;;;;;;;6.82;3.38;;;;;;;;;;4949804;28;20100;-68
2022/01/27 01:49:05;;;;;;;6.55;4.03;;;;;;;;;;4934092;28;20415;-67
2022/01/27 01:51:34;;;;;;;6.80;3.40;;;;;;;;;;4966194;28;20022;-67
2022/01/27 01:53:59;;;;;;;6.57;3.03;;;;;;;;;;4951640;28;20391;-67
2022/01/27 01:56:25;;;;;;;9.88;4.20;;;;;;;;;;4917144;28;20091;-68
2022/01/27 01:58:50;;;;;;;6.15;3.17;;;;;;;;;;4951526;28;20360;-68
2022/01/27 02:01:17;;;;;;;9.90;3.85;;;;;;;;;;4934115;28;20033;-68
2022/01/27 02:03:42;;;;;;;6.57;3.45;;;;;;;;;;4951127;28;20390;-68
2022/01/27 02:06:15;;;;;;;5.95;2.80;;;;;;;;;;4933771;28;20368;-68
2022/01/27 02:09:10;;;;;;;6.05;3.58;;;;;;;;;;4929496;28;20429;-68
2022/01/27 02:19:39;;;;;;;8.90;4.03;;;;;;;;;;4931316;28;20460;-68
2022/01/27 02:22:05;;;;;;;5.90;3.67;;;;;;;;;;4931585;28;20437;-67
2022/01/27 02:24:33;;;;;;;6.32;3.55;;;;;;;;;;4931277;28;20449;-68
2022/01/27 02:26:59;;;;;;;6.82;3.33;;;;;;;;;;4930894;28;20472;-68
2022/01/27 02:29:26;;;;;;;8.15;3.80;;;;;;;;;;4930218;28;20026;-67
2022/01/27 02:31:55;;;;;;;10.10;4.20;;;;;;;;;;4931217;28;20476;-68
2022/01/27 02:34:21;;;;;;;13.82;3.95;;;;;;;;;;4929843;28;20397;-68
2022/01/27 02:36:46;;;;;;;7.03;3.40;;;;;;;;;;4913213;28;20436;-68
2022/01/27 02:39:12;;;;;;;6.90;3.33;;;;;;;;;;4929571;28;20368;-67
2022/01/27 02:41:50;;;;;;;9.10;3.75;;;;;;;;;;4929388;28;20452;-68
2022/01/27 02:44:38;;;;;;;7.07;3.30;;;;;;;;;;4930888;28;20341;-68
2022/01/27 02:47:04;;;;;;;8.00;3.30;;;;;;;;;;4946285;28;20468;-67
2022/01/27 02:49:29;;;;;;;7.60;3.90;;;;;;;;;;4930537;28;20177;-68
2022/01/27 02:51:55;;;;;;;8.60;4.00;;;;;;;;;;4945586;28;20461;-68
2022/01/27 02:54:20;;;;;;;7.28;3.42;;;;;;;;;;4930614;28;20038;-68
2022/01/27 02:56:47;;;;;;;8.15;4.00;;;;;;;;;;4929530;28;20030;-68
2022/01/27 02:59:16;;;;;;;7.05;3.45;;;;;;;;;;4930862;28;20172;-67
2022/01/27 03:01:46;;;;;;;8.55;4.00;;;;;;;;;;4945740;28;20456;-69
2022/01/27 03:04:12;;;;;;;6.28;3.60;;;;;;;;;;4929515;28;20480;-69
2022/01/27 03:06:38;;;;;;;6.90;3.55;;;;;;;;;;4931082;28;20500;-67
2022/01/27 03:09:03;;;;;;;8.07;3.40;;;;;;;;;;4954616;28;20441;-68
2022/01/27 03:11:48;;;;;;;9.48;4.63;;;;;;;;;;4930606;28;20335;-67
2022/01/27 03:14:15;;;;;;;7.78;3.70;;;;;;;;;;4929245;28;20504;-68
2022/01/27 03:16:41;;;;;;;8.43;3.85;;;;;;;;;;4944855;28;20408;-68
2022/01/27 03:19:07;;;;;;;4.85;3.20;;;;;;;;;;4930684;28;20381;-69
2022/01/27 03:21:33;;;;;;;8.30;4.63;;;;;;;;;;4928523;28;20341;-67
2022/01/27 03:23:58;;;;;;;7.22;3.38;;;;;;;;;;4928788;28;20370;-68
2022/01/27 03:26:24;;;;;;;5.95;3.10;;;;;;;;;;4961344;28;20453;-68
2022/01/27 03:28:50;;;;;;;6.13;3.42;;;;;;;;;;4930383;28;20307;-68
2022/01/27 03:31:15;;;;;;;7.63;3.75;;;;;;;;;;4929085;28;20096;-68
2022/01/27 03:33:41;;;;;;;7.80;3.30;;;;;;;;;;4930006;28;20430;-68
2022/01/27 03:36:07;;;;;;;7.30;3.47;;;;;;;;;;4928990;28;20330;-68
2022/01/27 03:38:33;;;;;;;7.10;3.00;;;;;;;;;;4930236;28;20386;-68
2022/01/27 03:40:59;;;;;;;5.78;3.63;;;;;;;;;;4931926;28;20373;-68
2022/01/27 03:43:24;;;;;;;6.97;3.55;;;;;;;;;;4934268;28;20357;-67
2022/01/27 03:45:50;;;;;;;6.65;3.45;;;;;;;;;;4932628;28;20034;-67
2022/01/27 03:48:15;;;;;;;8.00;3.33;;;;;;;;;;4964996;28;20105;-68
2022/01/27 03:50:40;;;;;;;8.57;4.28;;;;;;;;;;4934115;28;20418;-67
2022/01/27 03:53:06;;;;;;;5.72;3.38;;;;;;;;;;4934948;28;20314;-68
2022/01/27 03:55:31;;;;;;;6.30;3.85;;;;;;;;;;4934120;28;20461;-69
2022/01/27 03:57:56;;;;;;;5.85;3.65;;;;;;;;;;4933791;28;20382;-69
2022/01/27 04:00:22;;;;;;;10.05;3.45;;;;;;;;;;4934472;28;20452;-68
2022/01/27 04:05:52;;;;;;;4.93;2.80;;;;;;;;;;4932991;28;20353;-67
2022/01/27 04:08:17;;;;;;;8.38;2.85;;;;;;;;;;4939898;28;20543;-67
2022/01/27 04:10:43;;;;;;;7.18;3.97;;;;;;;;;;4935403;28;20502;-70
2022/01/27 04:13:08;;;;;;;6.45;3.35;;;;;;;;;;4935771;28;20038;-68
2022/01/27 04:15:35;;;;;;;4.90;2.90;;;;;;;;;;4935466;28;20432;-68
2022/01/27 04:18:00;;;;;;;6.53;3.13;;;;;;;;;;4935487;28;20326;-68
2022/01/27 04:20:26;;;;;;;9.50;4.70;;;;;;;;;;4967356;28;20052;-67
2022/01/27 04:22:51;;;;;;;6.18;3.53;;;;;;;;;;4953104;28;20484;-68
2022/01/27 04:25:17;;;;;;;7.25;3.75;;;;;;;;;;4953491;28;20365;-67
2022/01/27 04:27:49;;;;;;;6.50;3.42;;;;;;;;;;4953047;28;20306;-68
2022/01/27 04:30:19;;;;;;;10.55;3.83;;;;;;;;;;4953277;28;20306;-68
2022/01/27 04:32:53;;;;;;;9.40;5.13;;;;;;;;;;4952726;28;20344;-69
2022/01/27 04:35:21;;;;;;;8.55;3.83;;;;;;;;;;4966502;28;20034;-68
2022/01/27 04:37:59;;;;;;;7.97;4.00;;;;;;;;;;4952568;28;20522;-68
2022/01/27 04:41:13;;;;;;;7.53;3.75;;;;;;;;;;4966604;28;20033;-70
2022/01/27 04:45:56;;;;;;;10.77;4.55;;;;;;;;;;4935341;28;20473;-68
2022/01/27 04:48:23;;;;;;;7.70;5.22;;;;;;;;;;4937712;28;20057;-68
2022/01/27 04:50:50;;;;;;;9.90;4.13;;;;;;;;;;4952439;28;20444;-68
2022/01/27 04:53:26;;;;;;;8.50;4.35;;;;;;;;;;4951046;28;20049;-68
2022/01/27 04:55:51;;;;;;;8.35;4.88;;;;;;;;;;4936231;28;20564;-69
2022/01/27 04:58:24;;;;;;;9.00;4.68;;;;;;;;;;4953891;28;20536;-68
2022/01/27 05:00:49;;;;;;;15.10;5.10;;;;;;;;;;4952155;28;20096;-67
2022/01/27 05:03:28;;;;;;;9.48;4.75;;;;;;;;;;4952104;28;20480;-68
2022/01/27 05:05:56;;;;;;;7.13;4.07;;;;;;;;;;4952920;28;20459;-67
2022/01/27 05:08:21;;;;;;;10.68;4.13;;;;;;;;;;4951573;28;20487;-67
2022/01/27 05:10:56;;;;;;;8.57;4.68;;;;;;;;;;4951929;28;20417;-68
2022/01/27 05:13:24;;;;;;;7.82;4.25;;;;;;;;;;4952114;28;20449;-68
2022/01/27 05:15:49;;;;;;;9.70;5.28;;;;;;;;;;4934643;28;20321;-68
2022/01/27 05:18:17;;;;;;;8.13;4.22;;;;;;;;;;4952266;28;20365;-67
2022/01/27 05:20:43;;;;;;;5.47;3.65;;;;;;;;;;4952051;28;20348;-67
2022/01/27 05:23:09;;;;;;;7.22;4.05;;;;;;;;;;4951941;28;20091;-67
2022/01/27 05:25:34;;;;;;;9.13;4.50;;;;;;;;;;4951649;28;20026;-68
2022/01/27 05:28:00;;;;;;;10.63;4.68;;;;;;;;;;4934456;28;20018;-67
2022/01/27 05:30:25;;;;;;;9.25;4.85;;;;;;;;;;4949905;28;20523;-67
2022/01/27 05:32:51;;;;;;;9.35;5.20;;;;;;;;;;4953237;28;20333;-68
2022/01/27 05:35:17;;;;;;;10.48;4.45;;;;;;;;;;4933995;28;20320;-68
2022/01/27 05:37:42;;;;;;;7.05;4.30;;;;;;;;;;4933674;28;20034;-68
2022/01/27 05:40:08;;;;;;;11.02;4.72;;;;;;;;;;4952716;28;20030;-67
2022/01/27 05:42:33;;;;;;;9.82;4.95;;;;;;;;;;4951275;28;20424;-68
2022/01/27 05:45:00;;;;;;;8.77;4.20;;;;;;;;;;4933998;28;20484;-68
2022/01/27 05:47:25;;;;;;;7.15;4.45;;;;;;;;;;4951931;28;20444;-68
2022/01/27 05:49:51;;;;;;;9.68;4.93;;;;;;;;;;4933921;28;20330;-69
2022/01/27 05:52:16;;;;;;;8.98;4.43;;;;;;;;;;4950911;28;20030;-67
2022/01/27 05:54:42;;;;;;;12.35;4.60;;;;;;;;;;4951691;28;20328;-68
2022/01/27 05:57:07;;;;;;;8.02;4.15;;;;;;;;;;4951352;28;20441;-69
2022/01/27 05:59:33;;;;;;;7.60;4.57;;;;;;;;;;4951148;28;20514;-67
2022/01/27 06:01:58;;;;;;;7.75;4.60;;;;;;;;;;4951503;28;20444;-68
2022/01/27 06:04:23;;;;;;;8.30;4.47;;;;;;;;;;4951474;28;20558;-68
2022/01/27 06:06:49;;;;;;;9.25;4.63;;;;;;;;;;4952640;28;20498;-68
2022/01/27 06:09:15;;;;;;;10.40;5.05;;;;;;;;;;4950720;28;20539;-68
2022/01/27 06:11:40;;;;;;;7.20;4.28;;;;;;;;;;4951420;28;20357;-68
2022/01/27 06:14:06;;;;;;;8.95;3.90;;;;;;;;;;4933130;28;20399;-67
2022/01/27 06:16:31;;;;;;;9.32;4.35;;;;;;;;;;4933005;28;20532;-67
2022/01/27 06:18:57;;;;;;;12.15;5.15;;;;;;;;;;4950696;28;20511;-69
2022/01/27 06:21:22;;;;;;;7.93;4.78;;;;;;;;;;4951578;28;20045;-68
2022/01/27 06:23:48;;;;;;;10.77;4.88;;;;;;;;;;4950581;28;20532;-68
2022/01/27 06:26:14;;;;;;;10.73;5.47;;;;;;;;;;4951108;28;20421;-68
2022/01/27 06:28:39;;;;;;;9.88;4.90;;;;;;;;;;4950404;28;20053;-68
2022/01/27 06:31:04;;;;;;;13.68;4.63;;;;;;;;;;4932509;28;20030;-67
2022/01/27 06:33:30;;;;;;;10.40;5.25;;;;;;;;;;4950881;28;20421;-68
2022/01/27 06:35:55;;;;;;;9.90;4.57;;;;;;;;;;4933025;28;20478;-67
2022/01/27 06:38:20;;;;;;;10.05;5.00;;;;;;;;;;4950394;28;20077;-69
2022/01/27 06:40:46;;;;;;;6.40;3.97;;;;;;;;;;4950969;28;20495;-68
2022/01/27 06:43:15;;;;;;;8.05;5.18;;;;;;;;;;4951194;28;20072;-68
2022/01/27 06:45:40;;;;;;;7.43;4.10;;;;;;;;;;4932512;28;20463;-68
2022/01/27 06:48:05;;;;;;;11.00;5.28;;;;;;;;;;4949969;28;20340;-68
2022/01/27 06:50:36;;;;;;;10.15;4.88;;;;;;;;;;4950108;28;20544;-68
2022/01/27 06:53:02;;;;;;;9.65;4.63;;;;;;;;;;4949744;28;20107;-68
2022/01/27 06:55:27;;;;;;;12.75;4.93;;;;;;;;;;4950258;28;20440;-68
2022/01/27 06:57:53;;;;;;;8.52;4.45;;;;;;;;;;4932601;28;20452;-67
2022/01/27 07:00:18;;;;;;;10.85;4.60;;;;;;;;;;4950736;28;20376;-68
2022/01/27 07:02:43;;;;;;;11.65;5.18;;;;;;;;;;4932119;28;20384;-67
2022/01/27 07:05:10;;;;;;;9.25;4.88;;;;;;;;;;4951890;28;20440;-67
2022/01/27 07:07:36;;;;;;;10.43;5.60;;;;;;;;;;4950845;28;20352;-67
2022/01/27 07:10:01;;;;;;;8.10;4.40;;;;;;;;;;4964699;28;20384;-68
2022/01/27 07:12:27;;;;;;;7.40;3.97;;;;;;;;;;4949963;28;20456;-68
2022/01/27 07:14:54;;;;;;;7.85;4.40;;;;;;;;;;4949526;28;20374;-68
2022/01/27 07:17:20;;;;;;;13.30;5.13;;;;;;;;;;4950519;28;20428;-68
2022/01/27 07:19:45;;;;;;;7.60;4.43;;;;;;;;;;4965491;28;20017;-68
2022/01/27 07:22:11;;;;;;;8.48;4.55;;;;;;;;;;4931869;28;20471;-68
2022/01/27 07:24:36;;;;;;;13.07;5.30;;;;;;;;;;4949926;28;20436;-68
2022/01/27 07:27:02;;;;;;;9.45;5.00;;;;;;;;;;4931974;28;20496;-68
2022/01/27 07:29:27;;;;;;;10.38;5.30;;;;;;;;;;4932715;28;20415;-68
2022/01/27 07:31:52;;;;;;;8.77;4.65;;;;;;;;;;4949614;28;20034;-68
2022/01/27 07:34:17;;;;;;;9.93;5.40;;;;;;;;;;4950253;28;20422;-67
2022/01/27 07:36:43;;;;;;;13.75;6.15;;;;;;;;;;4951266;28;20336;-68
2022/01/27 07:39:14;;;;;;;13.02;5.82;;;;;;;;;;4951351;28;20356;-68
2022/01/27 07:41:39;;;;;;;9.27;5.18;;;;;;;;;;4949953;28;20463;-68
2022/01/27 07:44:04;;;;;;;14.75;6.20;;;;;;;;;;4949565;28;20460;-69
2022/01/27 07:46:30;;;;;;;15.95;6.97;;;;;;;;;;4949830;28;20507;-67
2022/01/27 07:48:55;;;;;;;15.60;5.75;;;;;;;;;;4949614;28;20034;-68
2022/01/27 07:51:21;;;;;;;12.73;5.85;;;;;;;;;;4950536;28;20444;-67
2022/01/27 07:53:46;;;;;;;16.30;6.10;;;;;;;;;;4950326;28;20523;-67
2022/01/27 07:56:11;;;;;;;14.60;5.90;;;;;;;;;;4949721;28;20441;-69
2022/01/27 07:58:38;;;;;;;8.63;5.18;;;;;;;;;;4949479;28;20498;-68
2022/01/27 08:01:05;;;;;;;11.02;5.07;;;;;;;;;;4949813;28;20445;-68
2022/01/27 08:03:30;;;;;;;12.27;5.68;;;;;;;;;;4931524;28;20099;-68
2022/01/27 08:05:56;;;;;;;11.73;5.65;;;;;;;;;;4949149;28;20030;-67
2022/01/27 08:08:21;;;;;;;10.82;4.55;;;;;;;;;;4949761;28;20437;-68
2022/01/27 08:10:48;;;;;;;12.00;5.35;;;;;;;;;;4949241;28;20437;-68
2022/01/27 08:13:14;;;;;;;11.23;5.38;;;;;;;;;;4949414;28;20341;-68
2022/01/27 08:15:39;;;;;;;16.75;6.07;;;;;;;;;;4931877;28;20018;-67
2022/01/27 08:18:05;;;;;;;15.57;7.22;;;;;;;;;;4950550;28;20429;-68
2022/01/27 08:20:31;;;;;;;10.27;5.80;;;;;;;;;;4950049;28;20025;-68
2022/01/27 08:22:56;;;;;;;13.13;6.10;;;;;;;;;;4931842;28;20508;-68
2022/01/27 08:25:23;;;;;;;14.07;6.45;;;;;;;;;;4931962;28;20340;-68
2022/01/27 08:27:52;;;;;;;10.95;5.78;;;;;;;;;;4966814;28;20041;-68
2022/01/27 08:30:19;;;;;;;11.25;5.93;;;;;;;;;;4936249;28;20421;-68
2022/01/27 08:32:48;;;;;;;14.95;6.22;;;;;;;;;;4935864;28;20060;-67
2022/01/27 08:35:15;;;;;;;11.98;6.45;;;;;;;;;;4935771;28;20412;-68
2022/01/27 08:37:40;;;;;;;13.68;5.93;;;;;;;;;;4967591;28;20428;-68
2022/01/27 08:40:07;;;;;;;15.18;6.88;;;;;;;;;;4952460;28;20454;-68
2022/01/27 08:42:32;;;;;;;14.52;7.15;;;;;;;;;;4953011;28;20356;-68
2022/01/27 08:44:57;;;;;;;14.10;6.03;;;;;;;;;;4935036;28;20322;-68
2022/01/27 08:47:23;;;;;;;13.68;6.95;;;;;;;;;;4953127;28;20476;-68
2022/01/27 08:49:48;;;;;;;11.80;6.40;;;;;;;;;;4952362;28;20329;-68
2022/01/27 08:52:14;;;;;;;14.65;6.55;;;;;;;;;;4952603;28;20467;-69
2022/01/27 08:54:39;;;;;;;13.90;6.32;;;;;;;;;;4935035;28;20518;-69
2022/01/27 08:57:05;;;;;;;13.32;6.28;;;;;;;;;;4918489;28;20350;-69
2022/01/27 08:59:31;;;;;;;13.02;5.93;;;;;;;;;;4918736;28;20340;-70
2022/01/27 09:01:56;;;;;;;14.80;6.85;;;;;;;;;;4952105;28;20352;-68
2022/01/27 09:04:22;;;;;;;14.13;6.50;;;;;;;;;;4953241;28;20476;-68
2022/01/27 09:06:47;;;;;;;12.45;6.13;;;;;;;;;;4934446;28;20472;-68
2022/01/27 09:09:13;;;;;;;12.88;6.95;;;;;;;;;;4931381;28;20476;-68
2022/01/27 09:11:39;;;;;;;13.95;6.32;;;;;;;;;;4934068;28;20404;-68
2022/01/27 09:14:05;;;;;;;14.38;6.70;;;;;;;;;;4932773;28;20361;-69
2022/01/27 09:16:31;;;;;;;13.52;6.68;;;;;;;;;;4932913;28;20345;-68
2022/01/27 09:18:59;;;;;;;15.23;7.13;;;;;;;;;;4932358;28;20097;-68
2022/01/27 09:21:27;;;;;;;16.65;6.00;;;;;;;;;;4932689;28;20510;-68
2022/01/27 09:23:54;;;;;;;11.88;6.35;;;;;;;;;;4933025;28;20447;-68
2022/01/27 09:29:05;;;;;;;14.88;6.95;;;;;;;;;;4944763;28;20410;-68
2022/01/27 09:31:30;;;;;;;13.70;6.13;;;;;;;;;;4932634;28;20492;-69
2022/01/27 09:33:56;;;;;;;14.30;6.75;;;;;;;;;;4947283;28;20461;-69
2022/01/27 09:36:21;;;;;;;11.32;7.20;;;;;;;;;;4932382;28;20563;-68
2022/01/27 09:38:46;;;;;;;17.38;6.78;;;;;;;;;;4873467;28;20438;-68
2022/01/27 09:41:14;;;;;;;12.63;6.20;;;;;;;;;;4931449;28;20536;-68
2022/01/27 09:43:41;;;;;;;11.05;5.82;;;;;;;;;;4930688;28;20452;-68
2022/01/27 09:46:11;;;;;;;11.02;5.75;;;;;;;;;;4930602;28;20483;-68
2022/01/27 09:48:40;;;;;;;13.07;6.38;;;;;;;;;;4930739;28;20463;-68
2022/01/27 09:53:52;;;;;;;13.10;6.13;;;;;;;;;;4932861;28;20052;-69
2022/01/27 09:56:19;;;;;;;12.57;6.32;;;;;;;;;;4930419;28;20484;-68
2022/01/27 09:58:44;;;;;;;15.10;6.38;;;;;;;;;;4946378;28;20414;-69
2022/01/27 10:01:10;;;;;;;12.02;5.93;;;;;;;;;;4931497;28;20448;-68
2022/01/27 10:03:54;;;;;;;17.77;6.65;;;;;;;;;;4931841;28;20431;-68
2022/01/27 10:06:21;;;;;;;15.63;6.25;;;;;;;;;;4929808;28;20318;-69
2022/01/27 10:09:17;;;;;;;11.07;5.85;;;;;;;;;;4952174;28;20065;-69
2022/01/27 10:11:46;;;;;;;16.17;7.68;;;;;;;;;;4945992;28;20504;-70
2022/01/27 10:14:20;;;;;;;11.63;5.97;;;;;;;;;;4945779;28;20327;-69
2022/01/27 10:16:45;;;;;;;16.88;5.68;;;;;;;;;;4930015;28;20109;-69
2022/01/27 10:19:12;;;;;;;12.10;5.70;;;;;;;;;;4931261;28;20030;-69
2022/01/27 10:21:38;;;;;;;11.10;6.00;;;;;;;;;;4930001;28;20341;-69
2022/01/27 10:24:24;;;;;;;14.10;6.82;;;;;;;;;;4930748;28;20303;-68
2022/01/27 10:27:29;;;;;;;10.15;5.53;;;;;;;;;;4931974;28;20504;-71
2022/01/27 10:32:43;;;;;;;12.63;5.60;;;;;;;;;;4929587;28;20362;-69
2022/01/27 10:35:11;;;;;;;14.50;6.13;;;;;;;;;;4945652;28;20035;-68
2022/01/27 10:37:56;;;;;;;12.98;6.55;;;;;;;;;;4931196;28;20477;-70
2022/01/27 10:40:24;;;;;;;10.85;5.55;;;;;;;;;;4931034;28;20030;-69
2022/01/27 10:43:03;;;;;;;11.57;5.55;;;;;;;;;;4929727;28;20030;-68
2022/01/27 10:45:29;;;;;;;12.85;6.63;;;;;;;;;;4929552;28;20449;-68
2022/01/27 10:48:12;;;;;;;15.93;6.40;;;;;;;;;;4930981;28;20353;-69
2022/01/27 10:50:50;;;;;;;10.43;5.40;;;;;;;;;;4931588;28;20389;-69
2022/01/27 10:53:17;;;;;;;10.40;5.82;;;;;;;;;;4929117;28;20030;-69
2022/01/27 10:55:43;;;;;;;11.70;6.60;;;;;;;;;;4931838;28;20450;-68
2022/01/27 10:58:25;;;;;;;12.65;6.15;;;;;;;;;;4929276;28;20457;-69
2022/01/27 11:00:57;;;;;;;16.40;5.95;;;;;;;;;;4930508;28;20346;-69
2022/01/27 11:03:23;;;;;;;8.88;5.35;;;;;;;;;;4931206;28;20057;-69
2022/01/27 11:05:50;;;;;;;7.90;4.80;;;;;;;;;;4928968;28;20536;-69
2022/01/27 11:08:19;;;;;;;14.00;6.47;;;;;;;;;;4935867;28;20333;-69
2022/01/27 11:10:48;;;;;;;11.07;5.80;;;;;;;;;;4949763;28;20567;-68
2022/01/27 11:13:15;;;;;;;12.52;5.30;;;;;;;;;;4933397;28;20634;-69
2022/01/27 11:15:42;;;;;;;10.95;5.15;;;;;;;;;;4932456;28;20026;-70
2022/01/27 11:18:08;;;;;;;11.95;5.45;;;;;;;;;;4933113;28;20340;-69
2022/01/27 11:20:50;;;;;;;12.20;5.43;;;;;;;;;;4932199;28;20536;-70
2022/01/27 11:26:02;;;;;;;11.32;6.22;;;;;;;;;;4935484;28;20377;-68
2022/01/27 11:28:28;;;;;;;9.10;5.63;;;;;;;;;;4931906;28;20429;-69
2022/01/27 11:31:03;;;;;;;13.18;5.47;;;;;;;;;;4931838;28;20354;-69
2022/01/27 11:33:34;;;;;;;8.55;4.60;;;;;;;;;;4949279;28;20048;-69
2022/01/27 11:36:14;;;;;;;12.30;5.43;;;;;;;;;;4932117;28;20470;-69
2022/01/27 11:38:42;;;;;;;15.60;5.70;;;;;;;;;;4949426;28;20428;-69
2022/01/27 11:41:34;;;;;;;12.00;5.63;;;;;;;;;;4949946;28;20371;-68
2022/01/27 11:44:28;;;;;;;10.30;5.35;;;;;;;;;;4964591;28;20464;-72
2022/01/27 11:47:13;;;;;;;11.45;5.40;;;;;;;;;;4949340;28;20432;-68
2022/01/27 11:50:27;;;;;;;10.48;5.55;;;;;;;;;;4949803;28;20421;-69
2022/01/27 11:52:56;;;;;;;13.35;6.00;;;;;;;;;;4936105;28;20452;-69
2022/01/27 11:55:25;;;;;;;12.05;5.40;;;;;;;;;;4932080;28;20408;-69
2022/01/27 11:57:54;;;;;;;8.73;4.85;;;;;;;;;;4951204;28;20313;-68
2022/01/27 12:00:22;;;;;;;9.00;5.32;;;;;;;;;;4949761;28;20318;-69
2022/01/27 12:02:56;;;;;;;11.63;5.70;;;;;;;;;;4918607;28;20048;-68
2022/01/27 12:05:26;;;;;;;12.57;5.88;;;;;;;;;;4953817;28;20030;-68
2022/01/27 12:08:10;;;;;;;;;;;;;;;;;;4953948;28;20484;-68
2022/01/27 12:10:55;;;;;;;8.63;4.57;;;;;;;;;;4953235;28;20246;-68
2022/01/27 12:13:32;;;;;;;13.88;5.97;;;;;;;;;;4953528;28;20360;-68
2022/01/27 12:18:59;;;;;;;12.35;5.53;;;;;;;;;;4953104;28;20459;-69
2022/01/27 12:21:31;;;;;;;11.15;6.05;;;;;;;;;;4967825;28;20333;-68
2022/01/27 12:24:18;;;;;;;11.85;5.47;;;;;;;;;;4935147;28;20351;-68
2022/01/27 12:26:44;;;;;;;11.27;5.45;;;;;;;;;;4952893;28;20364;-69
2022/01/27 12:29:09;;;;;;;13.80;6.28;;;;;;;;;;4952920;28;20428;-68
2022/01/27 12:31:39;;;;;;;14.38;6.38;;;;;;;;;;4953013;28;20436;-68
2022/01/27 12:34:04;;;;;;;;;;;;;;;;;;4968373;28;20340;-69
2022/01/27 12:36:29;;;;;;;12.43;5.90;;;;;;;;;;4952641;28;19913;-68
2022/01/27 12:38:55;;;;;;;14.43;5.93;;;;;;;;;;4935510;28;20456;-69
2022/01/27 12:41:20;;;;;;;9.52;4.57;;;;;;;;;;4935018;28;20049;-68
2022/01/27 12:43:46;;;;;;;9.43;4.88;;;;;;;;;;4934978;28;20371;-68
2022/01/27 12:46:12;;;;;;;11.57;5.38;;;;;;;;;;4935611;28;20502;-68
2022/01/27 12:48:45;;;;;;;12.20;6.32;;;;;;;;;;4952761;28;20380;-68
2022/01/27 12:51:11;;;;;;;12.68;6.40;;;;;;;;;;4936317;28;20048;-69
2022/01/27 12:53:36;;;;;;;10.75;5.45;;;;;;;;;;4952597;28;20444;-68
2022/01/27 12:56:09;;;;;;;11.48;5.80;;;;;;;;;;4935194;28;20022;-69
2022/01/27 12:58:34;;;;;;;13.65;6.70;;;;;;;;;;4966593;28;20354;-68
2022/01/27 13:01:01;;;;;;;8.35;5.25;;;;;;;;;;4952414;28;20357;-68
2022/01/27 13:03:27;;;;;;;13.25;6.35;;;;;;;;;;4934609;28;20448;-68
2022/01/27 13:05:53;;;;;;;14.18;5.75;;;;;;;;;;4934607;28;20472;-69
2022/01/27 13:08:32;;;;;;;13.27;6.03;;;;;;;;;;4931234;28;20480;-68
2022/01/27 13:11:03;;;;;;;19.45;7.20;;;;;;;;;;4932825;28;20456;-68
2022/01/27 13:13:34;;;;;;;12.30;6.00;;;;;;;;;;4932320;28;20030;-69
2022/01/27 13:16:03;;;;;;;12.60;6.85;;;;;;;;;;4930859;28;20373;-68
2022/01/27 13:18:36;;;;;;;12.63;5.47;;;;;;;;;;4932719;28;20338;-68
2022/01/27 13:21:03;;;;;;;13.88;6.38;;;;;;;;;;4932540;28;20093;-69
2022/01/27 13:23:35;;;;;;;14.30;6.63;;;;;;;;;;4932725;28;20361;-68
2022/01/27 13:26:08;;;;;;;10.73;5.35;;;;;;;;;;4946900;28;20396;-68
2022/01/27 13:28:39;;;;;;;12.13;6.05;;;;;;;;;;4932285;28;20035;-68
2022/01/27 13:31:07;;;;;;;12.48;6.13;;;;;;;;;;4947008;28;20475;-68
2022/01/27 13:33:41;;;;;;;10.75;5.95;;;;;;;;;;4932331;28;20426;-68
2022/01/27 13:36:10;;;;;;;17.75;5.95;;;;;;;;;;4931026;28;20443;-69
2022/01/27 13:38:51;;;;;;;10.65;4.53;;;;;;;;;;4932932;28;20449;-67
2022/01/27 13:41:20;;;;;;;13.55;6.30;;;;;;;;;;4931451;28;20053;-68
2022/01/27 13:43:53;;;;;;;11.70;6.07;;;;;;;;;;4930899;28;20034;-68
2022/01/27 13:46:45;;;;;;;10.10;5.18;;;;;;;;;;4931915;28;20093;-68
2022/01/27 13:49:22;;;;;;;11.07;5.70;;;;;;;;;;4933000;28;20172;-68
2022/01/27 13:51:51;;;;;;;11.45;5.57;;;;;;;;;;4945744;28;20035;-68
2022/01/27 13:54:17;;;;;;;13.48;6.40;;;;;;;;;;4932082;28;20433;-68
2022/01/27 13:56:49;;;;;;;14.98;6.70;;;;;;;;;;4930494;28;20035;-68
2022/01/27 13:59:18;;;;;;;14.98;6.80;;;;;;;;;;4933394;28;20445;-68
2022/01/27 14:01:45;;;;;;;14.20;6.82;;;;;;;;;;4931318;28;20518;-68
2022/01/27 14:04:10;;;;;;;17.63;6.90;;;;;;;;;;4931842;28;20349;-68
2022/01/27 14:06:53;;;;;;;14.68;6.22;;;;;;;;;;4930699;28;20053;-68
2022/01/27 14:09:21;;;;;;;11.13;5.75;;;;;;;;;;4929942;28;20404;-68
2022/01/27 14:11:55;;;;;;;12.25;6.32;;;;;;;;;;4914291;28;20340;-68
2022/01/27 14:14:21;;;;;;;13.00;6.15;;;;;;;;;;4931805;28;20026;-68
2022/01/27 14:16:47;;;;;;;19.70;7.07;;;;;;;;;;4929629;28;20053;-68
2022/01/27 14:19:13;;;;;;;15.65;7.35;;;;;;;;;;4933638;28;20429;-67
2022/01/27 14:21:46;;;;;;;14.45;6.78;;;;;;;;;;4945594;28;20402;-67
2022/01/27 14:24:19;;;;;;;12.48;6.55;;;;;;;;;;4945775;28;20361;-68
2022/01/27 14:26:57;;;;;;;13.05;5.70;;;;;;;;;;4931309;28;20384;-68
2022/01/27 14:29:23;;;;;;;18.25;7.43;;;;;;;;;;4930020;28;20465;-68
2022/01/27 14:31:48;;;;;;;16.05;7.55;;;;;;;;;;4932461;28;20487;-68
2022/01/27 14:34:26;;;;;;;14.35;6.93;;;;;;;;;;4929845;28;20520;-70
2022/01/27 14:36:51;;;;;;;14.07;7.00;;;;;;;;;;4932336;28;20352;-69
2022/01/27 14:39:16;;;;;;;22.98;7.60;;;;;;;;;;4948578;28;20025;-69
2022/01/27 14:41:42;;;;;;;16.33;7.57;;;;;;;;;;4949669;28;20421;-68
2022/01/27 14:44:07;;;;;;;19.45;7.97;;;;;;;;;;4951124;28;20467;-68
2022/01/27 14:46:45;;;;;;;16.63;7.75;;;;;;;;;;4948847;28;20460;-68
2022/01/27 14:49:12;;;;;;;16.23;7.50;;;;;;;;;;4949694;28;20472;-68
2022/01/27 14:51:39;;;;;;;22.17;8.20;;;;;;;;;;4949008;28;20404;-69
2022/01/27 14:54:05;;;;;;;21.75;8.25;;;;;;;;;;4948612;28;20491;-68
2022/01/27 14:56:31;;;;;;;17.98;8.35;;;;;;;;;;4950241;28;20360;-68
2022/01/27 14:58:57;;;;;;;21.80;7.68;;;;;;;;;;4949043;28;20427;-68
2022/01/27 15:01:24;;;;;;;19.48;8.70;;;;;;;;;;4948697;28;20344;-68
2022/01/27 15:03:50;;;;;;;17.27;8.10;;;;;;;;;;4949015;28;20425;-68
2022/01/27 15:06:15;;;;;;;20.73;8.05;;;;;;;;;;4948851;28;20417;-68
2022/01/27 15:08:41;;;;;;;15.00;8.40;;;;;;;;;;4956082;28;20514;-68
2022/01/27 15:11:06;;;;;;;21.13;8.48;;;;;;;;;;4969369;28;20340;-68
2022/01/27 15:13:34;;;;;;;21.30;8.40;;;;;;;;;;4969459;28;20029;-68
2022/01/27 15:18:49;;;;;;;21.08;9.38;;;;;;;;;;4969171;28;20462;-68
2022/01/27 15:21:16;;;;;;;20.67;8.55;;;;;;;;;;4969349;28;20577;-68
2022/01/27 15:23:42;;;;;;;19.30;8.70;;;;;;;;;;4967861;28;20356;-68
2022/01/27 15:26:07;;;;;;;22.73;9.13;;;;;;;;;;4968334;28;20079;-68
2022/01/27 15:28:33;;;;;;;17.98;8.75;;;;;;;;;;4969251;28;20160;-68
2022/01/27 15:30:59;;;;;;;22.00;8.30;;;;;;;;;;4969448;28;20435;-68
2022/01/27 15:33:28;;;;;;;18.33;9.05;;;;;;;;;;4969350;28;20440;-69
2022/01/27 15:35:55;;;;;;;15.80;8.43;;;;;;;;;;4970459;28;20087;-68
2022/01/27 15:38:22;;;;;;;23.92;10.32;;;;;;;;;;4969279;28;20084;-69
2022/01/27 15:40:47;;;;;;;17.55;8.85;;;;;;;;;;4968989;28;20427;-69
2022/01/27 15:43:12;;;;;;;17.95;8.40;;;;;;;;;;4969315;28;20428;-68